Time;durP1;ratioP1;P1;durP2;ratioP2;P2;SDS_P1;SDS_P2;PMS_P1;PMS_P2;Temp;Humidity;BMP_temperature;BMP_pressure;BME280_temperature;BME280_humidity;BME280_pressure;Samples;Min_cycle;Max_cycle;Signal;HPM_P1;HPM_P2
2023/12/31 00:00:09;;;;;;;17.27;10.57;;;3.20;63.50;;;;;;5033746;28;20638;-88
2023/12/31 00:02:38;;;;;;;17.42;11.10;;;3.10;64.00;;;;;;5033360;28;20191;-89
2023/12/31 00:05:06;;;;;;;17.70;11.25;;;3.00;64.60;;;;;;5033632;28;20283;-88
2023/12/31 00:07:34;;;;;;;23.23;11.55;;;3.00;65.00;;;;;;5033346;28;20274;-87
2023/12/31 00:10:03;;;;;;;17.20;11.13;;;3.00;65.50;;;;;;5033133;28;20191;-85
2023/12/31 00:12:30;;;;;;;13.45;8.05;;;3.00;65.50;;;;;;5033219;28;20685;-90
2023/12/31 00:14:57;;;;;;;13.27;7.63;;;2.90;66.30;;;;;;5033260;28;20219;-88
2023/12/31 00:17:25;;;;;;;18.42;9.02;;;2.90;66.90;;;;;;5033429;28;20279;-89
2023/12/31 00:19:52;;;;;;;13.45;8.40;;;2.90;67.40;;;;;;5032995;28;20283;-91
2023/12/31 00:22:19;;;;;;;14.05;8.75;;;3.00;67.80;;;;;;5032778;28;20267;-91
2023/12/31 00:24:51;;;;;;;13.45;8.00;;;2.90;67.40;;;;;;5033307;28;20278;-88
2023/12/31 00:27:18;;;;;;;11.38;7.65;;;2.90;66.70;;;;;;5033372;28;20584;-86
2023/12/31 00:29:45;;;;;;;14.32;8.63;;;2.80;66.80;;;;;;5032946;28;20723;-89
2023/12/31 00:32:18;;;;;;;12.38;8.13;;;2.80;66.60;;;;;;5033046;28;20269;-90
2023/12/31 00:34:46;;;;;;;13.43;8.10;;;2.70;66.60;;;;;;5033190;28;20223;-90
2023/12/31 00:37:13;;;;;;;14.73;9.50;;;2.80;66.40;;;;;;5032845;28;20198;-85
2023/12/31 00:39:41;;;;;;;16.15;9.40;;;2.80;64.90;;;;;;5032941;28;20282;-86
2023/12/31 00:42:11;;;;;;;9.50;7.47;;;2.70;64.20;;;;;;5033285;28;20226;-87
2023/12/31 00:44:38;;;;;;;16.30;9.10;;;2.60;64.50;;;;;;5033057;28;20186;-87
2023/12/31 00:47:06;;;;;;;16.10;9.15;;;2.60;65.20;;;;;;5032481;28;20325;-90
2023/12/31 00:49:32;;;;;;;13.63;7.82;;;2.50;65.40;;;;;;5032264;28;20618;-89
2023/12/31 00:52:01;;;;;;;14.27;8.13;;;2.60;65.90;;;;;;5033168;28;20322;-89
2023/12/31 00:54:28;;;;;;;13.00;8.27;;;2.50;66.20;;;;;;5032772;28;20278;-90
2023/12/31 00:56:55;;;;;;;13.55;7.75;;;2.50;66.90;;;;;;5032600;28;20283;-87
2023/12/31 00:59:22;;;;;;;14.88;8.50;;;2.60;67.30;;;;;;5032833;28;20278;-87
2023/12/31 01:01:50;;;;;;;11.05;7.82;;;2.60;67.80;;;;;;5032825;28;20313;-84
2023/12/31 01:04:17;;;;;;;14.93;8.15;;;2.60;66.60;;;;;;5032036;28;20195;-86
2023/12/31 01:06:44;;;;;;;13.75;8.20;;;2.60;66.60;;;;;;5032856;28;20192;-87
2023/12/31 01:09:13;;;;;;;10.77;6.00;;;2.60;66.60;;;;;;5032491;28;20218;-86
2023/12/31 01:11:40;;;;;;;10.02;6.95;;;2.50;67.00;;;;;;5032706;28;20223;-88
2023/12/31 01:14:07;;;;;;;11.07;7.72;;;2.50;67.70;;;;;;5032806;28;20274;-86
2023/12/31 01:16:34;;;;;;;11.70;7.80;;;2.50;68.20;;;;;;5032108;28;20270;-85
2023/12/31 01:19:01;;;;;;;10.68;7.35;;;2.40;67.90;;;;;;5027730;28;20183;-87
2023/12/31 01:21:28;;;;;;;14.07;6.85;;;2.40;68.00;;;;;;5032206;28;20294;-88
2023/12/31 01:23:55;;;;;;;10.90;6.75;;;2.50;68.30;;;;;;5030409;28;20616;-88
2023/12/31 01:26:24;;;;;;;12.98;7.28;;;2.40;68.60;;;;;;5032761;28;20274;-86
2023/12/31 01:28:51;;;;;;;9.57;6.20;;;2.50;68.80;;;;;;5033427;28;20206;-88
2023/12/31 01:31:23;;;;;;;11.70;6.20;;;2.50;68.70;;;;;;5031667;28;20227;-84
2023/12/31 01:33:50;;;;;;;12.43;6.20;;;2.50;68.50;;;;;;5031272;28;20195;-83
2023/12/31 01:36:17;;;;;;;10.05;6.43;;;2.30;68.00;;;;;;5032064;28;20195;-86
2023/12/31 01:38:44;;;;;;;8.20;5.57;;;2.30;68.30;;;;;;5012257;28;20275;-85
2023/12/31 01:41:11;;;;;;;11.40;6.45;;;2.30;67.70;;;;;;5030388;28;20278;-85
2023/12/31 01:43:39;;;;;;;10.75;6.40;;;2.20;67.00;;;;;;5033154;28;20192;-83
2023/12/31 01:46:08;;;;;;;9.95;5.55;;;2.20;67.30;;;;;;5032526;28;20282;-85
2023/12/31 01:48:36;;;;;;;7.75;5.63;;;2.10;67.50;;;;;;5034656;28;20274;-85
2023/12/31 01:51:05;;;;;;;7.22;4.65;;;2.10;67.60;;;;;;5035302;28;20271;-85
2023/12/31 01:53:33;;;;;;;8.07;5.05;;;2.10;67.70;;;;;;5036223;28;20191;-87
2023/12/31 01:56:02;;;;;;;7.65;5.70;;;2.10;68.10;;;;;;5035296;28;20278;-85
2023/12/31 01:58:28;;;;;;;6.82;4.03;;;2.10;68.30;;;;;;5035754;28;20184;-85
2023/12/31 02:00:57;;;;;;;5.68;3.58;;;2.10;69.40;;;;;;5036083;28;20278;-87
2023/12/31 02:03:25;;;;;;;10.18;5.15;;;2.10;70.00;;;;;;5035367;28;20286;-85
2023/12/31 02:05:53;;;;;;;6.30;4.25;;;2.10;69.30;;;;;;5035986;28;20230;-86
2023/12/31 02:08:20;;;;;;;8.85;4.75;;;2.10;68.50;;;;;;5036105;28;20231;-86
2023/12/31 02:10:47;;;;;;;5.30;3.60;;;2.00;68.70;;;;;;5035661;28;20283;-86
2023/12/31 02:13:13;;;;;;;6.55;4.35;;;2.00;67.50;;;;;;5035579;28;20298;-86
2023/12/31 02:15:40;;;;;;;6.55;4.15;;;2.00;67.80;;;;;;5035267;28;20267;-86
2023/12/31 02:18:09;;;;;;;7.18;4.40;;;2.00;68.20;;;;;;5035757;28;20294;-86
2023/12/31 02:20:36;;;;;;;8.75;4.38;;;2.00;68.50;;;;;;5035427;28;20231;-87
2023/12/31 02:23:03;;;;;;;9.60;4.55;;;1.90;68.20;;;;;;5035541;28;20199;-87
2023/12/31 02:25:32;;;;;;;5.68;3.80;;;1.90;68.30;;;;;;5035282;28;20610;-86
2023/12/31 02:28:00;;;;;;;9.25;4.57;;;1.90;68.80;;;;;;5035276;28;20674;-86
2023/12/31 02:30:27;;;;;;;6.70;5.22;;;1.90;68.70;;;;;;5034431;28;20270;-87
2023/12/31 02:32:54;;;;;;;6.30;3.55;;;1.90;68.20;;;;;;5034650;28;20212;-85
2023/12/31 02:35:21;;;;;;;7.60;4.70;;;1.80;67.80;;;;;;5035271;28;20709;-87
2023/12/31 02:37:48;;;;;;;6.65;3.22;;;1.80;68.50;;;;;;5035344;28;20283;-87
2023/12/31 02:40:15;;;;;;;5.10;3.15;;;1.80;69.10;;;;;;5034953;28;20279;-87
2023/12/31 02:42:42;;;;;;;4.47;2.60;;;1.80;69.20;;;;;;5035465;28;20195;-87
2023/12/31 02:45:11;;;;;;;4.68;2.85;;;1.80;68.70;;;;;;5035216;28;20198;-87
2023/12/31 02:47:38;;;;;;;5.97;3.13;;;1.80;68.40;;;;;;5034306;28;20641;-87
2023/12/31 02:50:06;;;;;;;4.25;2.85;;;1.80;68.60;;;;;;5035307;28;20221;-87
2023/12/31 02:52:33;;;;;;;7.75;3.00;;;1.70;69.00;;;;;;5034773;28;20239;-87
2023/12/31 02:54:59;;;;;;;4.80;2.50;;;1.70;69.40;;;;;;5035213;28;20282;-87
2023/12/31 02:57:28;;;;;;;5.57;2.03;;;1.70;69.20;;;;;;5034831;28;20282;-87
2023/12/31 02:59:55;;;;;;;4.80;2.70;;;1.70;68.60;;;;;;5034787;28;20223;-88
2023/12/31 03:02:23;;;;;;;5.20;2.33;;;1.70;67.70;;;;;;5034592;28;20274;-87
2023/12/31 03:04:50;;;;;;;5.78;2.90;;;1.70;67.50;;;;;;5034407;28;20266;-88
2023/12/31 03:07:17;;;;;;;7.20;3.03;;;1.70;67.50;;;;;;5034207;28;20761;-87
2023/12/31 03:09:44;;;;;;;3.95;2.22;;;1.60;68.40;;;;;;5034828;28;20362;-87
2023/12/31 03:12:11;;;;;;;4.15;2.13;;;1.50;69.50;;;;;;5034678;28;20302;-87
2023/12/31 03:14:38;;;;;;;6.72;2.97;;;1.50;70.30;;;;;;5034509;28;20263;-87
2023/12/31 03:17:05;;;;;;;7.30;3.05;;;1.50;71.30;;;;;;5034558;28;20226;-87
2023/12/31 03:19:37;;;;;;;4.30;2.38;;;1.50;72.20;;;;;;5034663;28;20195;-86
2023/12/31 03:22:04;;;;;;;4.45;2.30;;;1.50;72.80;;;;;;5034443;28;20710;-86
2023/12/31 03:24:31;;;;;;;6.45;2.78;;;1.60;73.10;;;;;;5034193;28;20675;-87
2023/12/31 03:26:58;;;;;;;3.92;2.15;;;1.50;73.30;;;;;;5034193;28;20283;-87
2023/12/31 03:29:26;;;;;;;3.67;2.22;;;1.50;73.90;;;;;;5034092;28;20188;-86
2023/12/31 03:31:53;;;;;;;4.85;2.75;;;1.50;73.90;;;;;;5034581;28;20191;-85
2023/12/31 03:34:20;;;;;;;4.45;2.70;;;1.50;73.70;;;;;;5034307;28;20290;-86
2023/12/31 03:36:48;;;;;;;4.03;2.60;;;1.50;73.70;;;;;;5034051;28;20275;-86
2023/12/31 03:39:15;;;;;;;4.82;2.72;;;1.60;73.60;;;;;;5032601;28;20527;-86
2023/12/31 03:41:43;;;;;;;5.53;3.63;;;1.60;73.10;;;;;;5034050;28;20278;-85
2023/12/31 03:44:10;;;;;;;5.38;2.53;;;1.60;72.40;;;;;;5034060;28;20184;-86
2023/12/31 03:46:36;;;;;;;5.53;2.60;;;1.60;71.60;;;;;;5033711;28;20797;-86
2023/12/31 03:49:03;;;;;;;6.13;3.13;;;1.50;71.50;;;;;;5033631;28;20294;-86
2023/12/31 03:51:30;;;;;;;3.80;2.15;;;1.50;71.00;;;;;;5034122;28;20278;-86
2023/12/31 03:53:59;;;;;;;5.13;3.42;;;1.60;69.70;;;;;;5033518;28;20219;-87
2023/12/31 03:56:26;;;;;;;5.80;2.55;;;1.50;65.00;;;;;;5034140;28;20278;-86
2023/12/31 03:58:53;;;;;;;6.60;2.72;;;1.40;63.30;;;;;;5033951;28;20188;-85
2023/12/31 04:01:20;;;;;;;4.32;2.65;;;1.20;63.10;;;;;;5033675;28;20646;-86
2023/12/31 04:03:46;;;;;;;4.40;3.03;;;1.20;64.10;;;;;;5033835;28;20309;-85
2023/12/31 04:06:13;;;;;;;4.03;2.55;;;1.20;64.70;;;;;;5034071;28;20274;-84
2023/12/31 04:08:40;;;;;;;4.20;2.90;;;1.10;65.40;;;;;;5033536;28;20198;-85
2023/12/31 04:11:09;;;;;;;4.78;3.00;;;1.00;66.10;;;;;;5033766;28;20303;-85
2023/12/31 04:13:36;;;;;;;3.60;2.75;;;0.90;67.00;;;;;;5033023;28;20206;-85
2023/12/31 04:16:03;;;;;;;5.80;3.28;;;0.90;68.30;;;;;;5033374;28;20282;-85
2023/12/31 04:18:30;;;;;;;4.97;2.67;;;0.90;69.60;;;;;;5033334;28;20202;-84
2023/12/31 04:20:57;;;;;;;7.20;3.17;;;0.90;70.30;;;;;;5033257;28;20230;-84
2023/12/31 04:23:24;;;;;;;5.72;3.05;;;1.00;70.30;;;;;;5033028;28;20219;-86
2023/12/31 04:25:56;;;;;;;6.70;4.72;;;1.00;69.80;;;;;;5033668;28;20299;-86
2023/12/31 04:28:25;;;;;;;6.45;3.38;;;1.00;70.10;;;;;;5033330;28;20266;-87
2023/12/31 04:30:52;;;;;;;5.82;3.58;;;0.90;70.00;;;;;;5033530;28;20198;-86
2023/12/31 04:33:19;;;;;;;7.43;2.60;;;0.80;70.70;;;;;;5033432;28;20282;-85
2023/12/31 04:35:46;;;;;;;12.15;4.38;;;0.80;71.40;;;;;;5033028;28;20286;-86
2023/12/31 04:38:13;;;;;;;6.90;3.40;;;0.80;71.90;;;;;;5033329;28;20279;-86
2023/12/31 04:40:40;;;;;;;8.13;3.00;;;0.90;72.00;;;;;;5033396;28;20274;-87
2023/12/31 04:43:07;;;;;;;5.07;2.80;;;0.90;71.40;;;;;;5032857;28;20257;-87
2023/12/31 04:45:35;;;;;;;8.35;3.00;;;0.90;71.30;;;;;;5032990;28;20267;-87
2023/12/31 04:48:02;;;;;;;4.97;3.15;;;0.90;71.40;;;;;;5032910;28;20302;-87
2023/12/31 04:50:29;;;;;;;5.13;3.28;;;0.90;71.80;;;;;;5033324;28;20219;-87
2023/12/31 04:52:56;;;;;;;5.80;2.90;;;0.90;72.40;;;;;;5032908;28;20287;-87
2023/12/31 04:55:24;;;;;;;6.30;3.33;;;0.90;72.70;;;;;;5033349;28;20279;-86
2023/12/31 04:57:51;;;;;;;4.85;2.58;;;0.90;72.50;;;;;;5032423;28;20278;-88
2023/12/31 05:00:19;;;;;;;4.22;2.30;;;0.90;72.30;;;;;;5034274;28;20278;-88
2023/12/31 05:02:47;;;;;;;4.70;3.10;;;1.00;72.60;;;;;;5036405;28;20219;-87
2023/12/31 05:05:14;;;;;;;4.95;3.08;;;1.00;72.50;;;;;;5037197;28;20195;-87
2023/12/31 05:07:42;;;;;;;4.93;2.45;;;1.00;72.30;;;;;;5036834;28;20227;-87
2023/12/31 05:10:09;;;;;;;11.45;2.83;;;1.10;72.60;;;;;;5037117;28;20286;-89
2023/12/31 05:12:36;;;;;;;7.45;3.17;;;1.10;72.80;;;;;;5037193;28;20199;-88
2023/12/31 05:15:07;;;;;;;3.90;2.30;;;1.10;73.30;;;;;;5036629;28;20274;-88
2023/12/31 05:17:33;;;;;;;3.88;2.25;;;1.10;72.70;;;;;;5037070;28;20275;-88
2023/12/31 05:20:02;;;;;;;4.43;2.47;;;1.10;72.10;;;;;;5036725;28;20187;-88
2023/12/31 05:22:29;;;;;;;4.20;2.30;;;1.10;71.60;;;;;;5036503;28;20274;-89
2023/12/31 05:24:56;;;;;;;5.72;3.08;;;1.10;71.00;;;;;;5036898;28;20795;-88
2023/12/31 05:27:23;;;;;;;4.90;3.20;;;1.10;71.20;;;;;;5036522;28;20278;-85
2023/12/31 05:29:50;;;;;;;3.83;2.20;;;1.10;70.40;;;;;;5036962;28;20641;-86
2023/12/31 05:32:17;;;;;;;4.18;2.97;;;1.00;68.90;;;;;;5036278;28;20764;-86
2023/12/31 05:34:43;;;;;;;6.40;3.60;;;1.00;69.00;;;;;;5036728;28;20287;-86
2023/12/31 05:37:12;;;;;;;7.97;4.15;;;0.90;68.60;;;;;;5035574;28;20274;-86
2023/12/31 05:39:39;;;;;;;5.10;3.22;;;0.80;68.70;;;;;;5036546;28;20240;-86
2023/12/31 05:42:06;;;;;;;5.80;3.78;;;0.80;68.90;;;;;;5036586;28;20279;-86
2023/12/31 05:44:33;;;;;;;7.80;3.90;;;0.80;69.60;;;;;;5036155;28;20258;-86
2023/12/31 05:47:00;;;;;;;6.95;3.80;;;0.80;70.20;;;;;;5036139;28;20653;-86
2023/12/31 05:49:27;;;;;;;17.88;8.65;;;0.90;70.20;;;;;;5036483;28;20278;-86
2023/12/31 05:51:53;;;;;;;12.75;6.03;;;0.90;68.30;;;;;;5035504;28;20270;-86
2023/12/31 05:54:22;;;;;;;8.85;5.32;;;0.90;68.00;;;;;;5036333;28;20199;-86
2023/12/31 05:56:49;;;;;;;18.10;7.72;;;0.90;68.20;;;;;;5035621;28;20274;-85
2023/12/31 05:59:15;;;;;;;12.80;7.32;;;0.90;68.50;;;;;;5035734;28;20278;-86
2023/12/31 06:01:42;;;;;;;16.27;7.00;;;0.80;68.80;;;;;;5036081;28;20278;-86
2023/12/31 06:04:09;;;;;;;15.35;7.00;;;0.70;69.60;;;;;;5036248;28;20302;-86
2023/12/31 06:06:36;;;;;;;14.80;5.35;;;0.70;70.00;;;;;;5035568;28;20278;-86
2023/12/31 06:09:03;;;;;;;28.10;11.70;;;0.60;70.00;;;;;;5035539;28;20227;-85
2023/12/31 06:11:31;;;;;;;19.65;8.20;;;0.70;71.30;;;;;;5035092;28;20191;-86
2023/12/31 06:14:01;;;;;;;10.55;4.15;;;0.70;70.20;;;;;;5035233;28;20283;-86
2023/12/31 06:16:27;;;;;;;6.05;3.60;;;0.70;70.50;;;;;;5036032;28;20549;-86
2023/12/31 06:18:54;;;;;;;7.28;3.53;;;0.70;70.90;;;;;;5035547;28;20245;-86
2023/12/31 06:21:21;;;;;;;7.95;3.20;;;0.80;71.30;;;;;;5035812;28;20219;-86
2023/12/31 06:23:48;;;;;;;5.45;2.80;;;0.90;70.50;;;;;;5035373;28;20730;-86
2023/12/31 06:26:15;;;;;;;5.25;2.88;;;0.90;70.30;;;;;;5035261;28;20286;-86
2023/12/31 06:28:44;;;;;;;3.75;2.40;;;0.90;70.50;;;;;;5034998;28;20223;-86
2023/12/31 06:31:11;;;;;;;4.78;2.47;;;1.00;70.10;;;;;;5035441;28;20634;-85
2023/12/31 06:33:37;;;;;;;4.45;2.20;;;1.00;68.90;;;;;;5035290;28;20301;-86
2023/12/31 06:36:05;;;;;;;5.20;2.67;;;0.90;68.80;;;;;;5035258;28;20235;-85
2023/12/31 06:38:32;;;;;;;4.68;2.30;;;0.90;69.00;;;;;;5035386;28;20245;-86
2023/12/31 06:40:59;;;;;;;4.07;2.03;;;0.90;69.60;;;;;;5035195;28;20584;-82
2023/12/31 06:43:26;;;;;;;5.70;2.55;;;0.90;68.60;;;;;;5034979;28;20220;-83
2023/12/31 06:45:54;;;;;;;5.22;3.53;;;0.90;68.80;;;;;;5034261;28;20225;-81
2023/12/31 06:48:21;;;;;;;4.40;2.63;;;0.90;68.90;;;;;;5034725;28;20707;-84
2023/12/31 06:50:48;;;;;;;3.70;2.08;;;0.80;69.30;;;;;;5034953;28;20275;-84
2023/12/31 06:53:15;;;;;;;4.70;2.22;;;0.80;70.00;;;;;;5034679;28;20287;-84
2023/12/31 06:55:42;;;;;;;4.00;2.15;;;0.80;70.30;;;;;;5034507;28;20238;-84
2023/12/31 06:58:09;;;;;;;6.82;4.25;;;0.90;70.00;;;;;;5034059;28;20192;-83
2023/12/31 07:00:36;;;;;;;6.18;3.80;;;0.90;68.90;;;;;;5034755;28;20286;-85
2023/12/31 07:03:05;;;;;;;7.97;3.60;;;0.90;69.20;;;;;;5034308;28;20245;-84
2023/12/31 07:05:32;;;;;;;7.13;3.10;;;0.90;69.50;;;;;;5033085;28;20274;-85
2023/12/31 07:07:59;;;;;;;5.50;3.40;;;1.00;69.80;;;;;;5033743;28;20275;-85
2023/12/31 07:10:26;;;;;;;6.40;3.80;;;1.00;69.70;;;;;;5034270;28;20608;-85
2023/12/31 07:12:53;;;;;;;5.55;3.10;;;1.10;70.00;;;;;;5034037;28;20241;-84
2023/12/31 07:15:20;;;;;;;3.95;2.47;;;1.10;70.20;;;;;;5033956;28;20245;-85
2023/12/31 07:17:47;;;;;;;6.20;3.80;;;1.20;70.10;;;;;;5034272;28;20198;-85
2023/12/31 07:20:17;;;;;;;7.25;3.53;;;1.30;69.70;;;;;;5033855;28;20299;-85
2023/12/31 07:22:44;;;;;;;5.35;3.60;;;1.30;68.70;;;;;;5033770;28;20257;-86
2023/12/31 07:25:11;;;;;;;4.75;3.15;;;1.30;68.00;;;;;;5032956;28;20234;-85
2023/12/31 07:27:37;;;;;;;11.88;6.72;;;1.30;68.20;;;;;;5033847;28;20287;-85
2023/12/31 07:30:05;;;;;;;9.77;5.05;;;1.40;68.30;;;;;;5033682;28;20662;-84
2023/12/31 07:32:33;;;;;;;6.20;4.47;;;1.50;68.30;;;;;;5034356;28;20322;-85
2023/12/31 07:35:00;;;;;;;6.57;4.05;;;1.50;68.90;;;;;;5033234;28;20241;-85
2023/12/31 07:37:28;;;;;;;5.55;3.42;;;1.60;68.20;;;;;;5033842;28;20286;-85
2023/12/31 07:39:55;;;;;;;8.80;4.32;;;1.60;67.60;;;;;;5033425;28;20297;-85
2023/12/31 07:42:22;;;;;;;5.85;3.60;;;1.60;67.60;;;;;;5033890;28;20581;-85
2023/12/31 07:44:49;;;;;;;6.70;3.70;;;1.60;67.10;;;;;;5033717;28;20285;-79
2023/12/31 07:47:16;;;;;;;8.50;4.32;;;1.70;67.30;;;;;;5031280;28;20310;-79
2023/12/31 07:49:42;;;;;;;8.88;5.63;;;1.80;67.30;;;;;;5032953;28;20274;-79
2023/12/31 07:52:10;;;;;;;10.52;4.65;;;1.90;66.40;;;;;;5032675;28;20282;-79
2023/12/31 07:54:38;;;;;;;9.15;5.43;;;2.00;65.50;;;;;;5032599;28;20187;-79
2023/12/31 07:57:05;;;;;;;9.98;5.60;;;2.00;64.90;;;;;;5032368;28;20282;-79
2023/12/31 07:59:32;;;;;;;6.85;5.47;;;2.10;65.10;;;;;;5032392;28;20283;-79
2023/12/31 08:02:00;;;;;;;15.18;6.90;;;2.10;64.70;;;;;;5032520;28;20717;-79
2023/12/31 08:04:27;;;;;;;10.85;6.30;;;2.20;64.60;;;;;;5031653;28;20626;-79
2023/12/31 08:06:54;;;;;;;10.38;5.93;;;2.30;64.10;;;;;;5032427;28;20207;-79
2023/12/31 08:09:23;;;;;;;16.83;9.38;;;2.40;63.90;;;;;;5032337;28;20195;-79
2023/12/31 08:11:51;;;;;;;25.35;11.70;;;2.50;63.30;;;;;;5032416;28;20242;-78
2023/12/31 08:14:18;;;;;;;29.60;13.15;;;2.50;63.00;;;;;;5032301;28;20213;-78
2023/12/31 08:16:46;;;;;;;21.23;11.48;;;2.60;62.60;;;;;;5032505;28;20225;-78
2023/12/31 08:19:13;;;;;;;22.58;10.70;;;2.70;62.40;;;;;;5032275;28;20202;-78
2023/12/31 08:21:39;;;;;;;28.55;13.20;;;2.80;62.20;;;;;;5032395;28;20237;-79
2023/12/31 08:24:07;;;;;;;22.48;12.05;;;2.90;62.30;;;;;;5032561;28;20269;-78
2023/12/31 08:26:36;;;;;;;47.47;22.20;;;3.00;62.50;;;;;;5031423;28;20227;-78
2023/12/31 08:29:04;;;;;;;71.70;36.35;;;3.10;62.50;;;;;;5032465;28;20278;-78
2023/12/31 08:31:31;;;;;;;62.53;28.92;;;3.20;62.30;;;;;;5032116;28;20253;-78
2023/12/31 08:33:58;;;;;;;44.53;23.55;;;3.40;63.00;;;;;;5032400;28;20603;-81
2023/12/31 08:36:25;;;;;;;24.77;13.50;;;3.50;62.10;;;;;;5032018;28;20274;-81
2023/12/31 08:38:52;;;;;;;15.15;11.70;;;3.70;62.10;;;;;;5031899;28;20254;-81
2023/12/31 08:41:19;;;;;;;19.42;10.38;;;3.80;62.10;;;;;;5031693;28;20694;-81
2023/12/31 08:43:46;;;;;;;16.83;11.13;;;3.90;62.00;;;;;;5031534;28;20230;-81
2023/12/31 08:46:14;;;;;;;26.58;14.57;;;4.00;61.80;;;;;;5030988;28;20310;-81
2023/12/31 08:48:42;;;;;;;43.17;23.70;;;4.00;61.60;;;;;;5032327;28;20591;-81
2023/12/31 08:51:15;;;;;;;17.30;11.00;;;4.10;61.80;;;;;;5032068;28;20234;-80
2023/12/31 08:53:42;;;;;;;21.58;14.77;;;4.20;61.30;;;;;;5031916;28;20266;-81
2023/12/31 08:56:09;;;;;;;19.55;15.93;;;4.20;60.10;;;;;;5031984;28;20225;-81
2023/12/31 08:58:36;;;;;;;23.70;15.98;;;4.20;59.60;;;;;;5032038;28;20196;-81
2023/12/31 09:01:03;;;;;;;19.17;11.70;;;4.20;60.00;;;;;;5032195;28;20527;-82
2023/12/31 09:03:32;;;;;;;14.32;10.77;;;4.30;60.50;;;;;;5031939;28;20187;-82
2023/12/31 09:05:59;;;;;;;12.85;7.68;;;4.30;60.60;;;;;;5023517;28;20219;-82
2023/12/31 09:08:26;;;;;;;11.27;8.07;;;4.40;60.30;;;;;;5011488;28;20224;-81
2023/12/31 09:10:55;;;;;;;11.27;7.75;;;4.30;60.60;;;;;;5011952;28;20195;-82
2023/12/31 09:13:23;;;;;;;7.95;6.15;;;4.30;60.70;;;;;;5028868;28;20192;-82
2023/12/31 09:15:50;;;;;;;10.27;6.65;;;4.30;60.60;;;;;;5020164;28;20291;-82
2023/12/31 09:18:17;;;;;;;9.25;6.95;;;4.30;61.10;;;;;;5008642;28;20311;-81
2023/12/31 09:20:46;;;;;;;15.85;7.18;;;4.20;61.50;;;;;;5010791;28;20300;-82
2023/12/31 09:23:13;;;;;;;12.45;6.90;;;4.20;62.00;;;;;;5011616;28;20196;-82
2023/12/31 09:25:40;;;;;;;14.93;9.02;;;4.20;62.40;;;;;;5009112;28;20327;-81
2023/12/31 09:28:07;;;;;;;26.55;16.90;;;4.20;62.80;;;;;;5028588;28;20227;-80
2023/12/31 09:30:34;;;;;;;26.05;13.88;;;4.20;62.70;;;;;;5030466;28;20216;-80
2023/12/31 09:33:01;;;;;;;17.60;10.02;;;4.20;62.80;;;;;;5031643;28;20192;-80
2023/12/31 09:35:28;;;;;;;16.45;11.77;;;4.30;63.20;;;;;;5031329;28;20210;-83
2023/12/31 09:37:56;;;;;;;21.35;14.63;;;4.30;63.40;;;;;;5031628;28;20287;-77
2023/12/31 09:40:23;;;;;;;12.10;7.85;;;4.40;63.00;;;;;;5031147;28;20191;-77
2023/12/31 09:42:51;;;;;;;12.88;7.45;;;4.50;63.00;;;;;;5031407;28;20645;-77
2023/12/31 09:45:21;;;;;;;8.15;5.18;;;4.60;63.30;;;;;;5031656;28;20300;-77
2023/12/31 09:47:50;;;;;;;5.72;4.05;;;4.70;62.50;;;;;;5032401;28;20248;-77
2023/12/31 09:50:19;;;;;;;6.85;4.28;;;4.70;62.00;;;;;;5035084;28;20223;-77
2023/12/31 09:52:48;;;;;;;7.82;5.63;;;4.80;61.70;;;;;;5034940;28;20200;-77
2023/12/31 09:55:18;;;;;;;11.43;7.50;;;4.90;62.70;;;;;;5035082;28;20542;-77
2023/12/31 09:57:47;;;;;;;12.80;8.02;;;5.00;61.50;;;;;;5034998;28;20201;-77
2023/12/31 10:00:15;;;;;;;13.50;7.75;;;5.20;61.50;;;;;;5035152;28;20196;-77
2023/12/31 10:02:43;;;;;;;12.32;7.53;;;5.30;61.80;;;;;;5034754;28;20192;-77
2023/12/31 10:05:11;;;;;;;10.20;6.93;;;5.60;61.00;;;;;;5034561;28;20306;-77
2023/12/31 10:07:38;;;;;;;8.65;5.80;;;5.70;60.00;;;;;;5034750;28;20207;-77
2023/12/31 10:10:08;;;;;;;11.05;7.78;;;5.80;60.20;;;;;;5034593;28;20646;-77
2023/12/31 10:12:37;;;;;;;8.90;6.43;;;5.80;60.10;;;;;;5034766;28;20202;-77
2023/12/31 10:15:07;;;;;;;7.43;5.22;;;5.80;60.70;;;;;;5034231;28;20195;-77
2023/12/31 10:17:34;;;;;;;7.88;5.32;;;5.80;61.40;;;;;;5034599;28;20196;-77
2023/12/31 10:20:03;;;;;;;4.07;2.63;;;5.80;61.50;;;;;;5034776;28;20283;-77
2023/12/31 10:22:30;;;;;;;8.57;4.95;;;5.90;59.20;;;;;;5034195;28;20223;-78
2023/12/31 10:25:12;;;;;;;6.93;4.03;;;6.00;58.50;;;;;;5034589;28;20560;-77
2023/12/31 10:27:40;;;;;;;7.20;4.95;;;6.20;58.80;;;;;;5034355;28;20263;-77
2023/12/31 10:30:11;;;;;;;9.23;4.70;;;6.40;59.50;;;;;;5033345;28;20198;-77
2023/12/31 10:32:38;;;;;;;8.77;4.22;;;6.70;59.90;;;;;;5034637;28;20207;-76
2023/12/31 10:35:06;;;;;;;4.35;2.33;;;7.00;58.90;;;;;;5033410;28;20239;-77
2023/12/31 10:37:34;;;;;;;3.63;2.65;;;7.30;57.20;;;;;;5034308;28;20191;-77
2023/12/31 10:40:19;;;;;;;9.18;5.70;;;7.40;57.10;;;;;;5034307;28;20728;-77
2023/12/31 10:42:55;;;;;;;14.32;5.97;;;7.60;55.50;;;;;;5034194;28;20176;-77
2023/12/31 10:45:22;;;;;;;6.95;4.47;;;7.90;55.20;;;;;;5033306;28;20711;-78
2023/12/31 10:47:51;;;;;;;9.38;5.10;;;8.30;55.80;;;;;;5033389;28;20317;-77
2023/12/31 10:50:24;;;;;;;7.50;4.70;;;8.80;55.40;;;;;;5034114;28;20203;-77
2023/12/31 10:52:53;;;;;;;5.90;3.90;;;9.40;55.30;;;;;;5034113;28;20672;-77
2023/12/31 10:55:21;;;;;;;15.00;8.77;;;9.80;54.10;;;;;;5033882;28;20232;-77
2023/12/31 10:57:51;;;;;;;10.30;6.15;;;10.20;51.40;;;;;;5033439;28;20199;-77
2023/12/31 11:00:19;;;;;;;20.70;9.75;;;10.60;49.60;;;;;;5033589;28;20210;-78
2023/12/31 11:02:46;;;;;;;6.97;4.20;;;10.90;49.00;;;;;;5033816;28;20195;-78
2023/12/31 11:05:14;;;;;;;6.93;3.17;;;11.20;47.20;;;;;;5033457;28;20227;-79
2023/12/31 11:07:42;;;;;;;4.13;3.10;;;11.50;47.70;;;;;;5028256;28;20460;-78
2023/12/31 11:10:10;;;;;;;7.47;4.72;;;11.70;48.90;;;;;;5022356;28;20218;-78
2023/12/31 11:12:37;;;;;;;10.48;5.90;;;11.90;49.00;;;;;;5027185;28;20279;-78
2023/12/31 11:15:17;;;;;;;8.70;5.53;;;12.10;49.30;;;;;;5024989;28;20700;-79
2023/12/31 11:18:19;;;;;;;9.80;4.32;;;12.20;49.50;;;;;;4998686;28;20434;-78
2023/12/31 11:21:13;;;;;;;5.43;4.20;;;12.30;49.70;;;;;;5031164;28;20190;-78
2023/12/31 11:23:48;;;;;;;5.50;3.33;;;12.40;49.10;;;;;;5030186;28;20668;-78
2023/12/31 11:26:15;;;;;;;8.90;5.40;;;12.50;48.50;;;;;;5023736;28;20868;-80
2023/12/31 11:28:48;;;;;;;5.97;4.40;;;12.50;48.80;;;;;;5023567;28;20274;-80
2023/12/31 11:31:17;;;;;;;4.82;3.58;;;12.60;47.80;;;;;;5023352;28;20203;-79
2023/12/31 11:33:46;;;;;;;4.93;2.90;;;12.50;47.10;;;;;;5032478;28;20215;-79
2023/12/31 11:36:15;;;;;;;4.40;2.75;;;12.50;45.80;;;;;;5021767;28;20223;-78
2023/12/31 11:38:58;;;;;;;3.60;2.30;;;12.40;45.70;;;;;;5031446;28;20218;-78
2023/12/31 11:41:27;;;;;;;5.05;3.33;;;12.10;45.70;;;;;;5033282;28;20532;-77
2023/12/31 11:43:54;;;;;;;4.30;3.00;;;12.00;46.20;;;;;;5033481;28;20192;-78
2023/12/31 11:46:39;;;;;;;3.90;2.40;;;11.90;46.60;;;;;;5032896;28;20269;-78
2023/12/31 11:49:06;;;;;;;3.63;2.77;;;11.90;46.50;;;;;;5033130;28;20727;-78
2023/12/31 11:51:52;;;;;;;4.38;2.70;;;11.80;46.90;;;;;;5031258;28;20856;-79
2023/12/31 11:54:21;;;;;;;5.03;2.70;;;11.90;46.10;;;;;;5032519;28;20188;-78
2023/12/31 11:56:48;;;;;;;4.17;2.47;;;11.80;45.40;;;;;;5032862;28;20465;-78
2023/12/31 11:59:16;;;;;;;4.00;2.90;;;11.80;46.40;;;;;;5033007;28;20425;-77
2023/12/31 12:01:45;;;;;;;5.43;3.00;;;11.70;46.30;;;;;;5033096;28;20434;-77
2023/12/31 12:04:12;;;;;;;3.77;2.90;;;11.70;46.10;;;;;;5033207;28;20430;-78
2023/12/31 12:06:40;;;;;;;3.73;2.93;;;11.70;46.00;;;;;;5032632;28;20563;-78
2023/12/31 12:09:08;;;;;;;4.43;2.10;;;11.60;46.70;;;;;;5032810;28;20878;-77
2023/12/31 12:11:35;;;;;;;4.30;2.80;;;11.60;46.10;;;;;;5032321;28;20195;-77
2023/12/31 12:14:04;;;;;;;7.65;2.42;;;11.60;46.00;;;;;;5032929;28;20477;-77
2023/12/31 12:16:33;;;;;;;3.70;2.60;;;11.50;45.90;;;;;;5032380;28;20286;-77
2023/12/31 12:19:05;;;;;;;3.92;2.17;;;11.50;45.20;;;;;;5032402;28;20530;-78
2023/12/31 12:21:32;;;;;;;3.10;2.00;;;11.50;45.20;;;;;;5032091;28;20191;-77
2023/12/31 12:24:00;;;;;;;4.43;2.60;;;11.40;45.60;;;;;;5032718;28;20187;-78
2023/12/31 12:26:27;;;;;;;4.65;2.75;;;11.30;45.80;;;;;;5032760;28;20606;-78
2023/12/31 12:28:55;;;;;;;7.70;3.10;;;11.30;45.50;;;;;;5029721;28;20620;-77
2023/12/31 12:31:34;;;;;;;5.68;3.10;;;11.20;45.60;;;;;;5032611;28;20202;-78
2023/12/31 12:34:04;;;;;;;5.78;3.30;;;11.20;45.50;;;;;;5032068;28;20182;-77
2023/12/31 12:36:32;;;;;;;6.50;3.15;;;11.20;45.40;;;;;;5032671;28;20202;-77
2023/12/31 12:39:02;;;;;;;5.23;3.23;;;11.30;44.70;;;;;;5032070;28;20261;-78
2023/12/31 12:41:32;;;;;;;5.00;3.10;;;11.30;44.70;;;;;;5030551;28;20438;-77
2023/12/31 12:43:59;;;;;;;6.23;3.27;;;11.50;44.10;;;;;;5012518;28;20439;-77
2023/12/31 12:46:31;;;;;;;7.50;3.30;;;11.60;44.10;;;;;;5012148;28;20486;-77
2023/12/31 12:49:05;;;;;;;5.37;2.63;;;11.70;44.20;;;;;;5021745;28;20183;-77
2023/12/31 12:51:40;;;;;;;3.15;2.25;;;11.90;43.90;;;;;;5032305;28;20892;-78
2023/12/31 12:54:11;;;;;;;3.07;2.20;;;12.00;44.10;;;;;;5032374;28;20270;-78